createdAt,value
2023-05-21T00:01:27.260Z,14.09
2023-05-21T00:03:56.819Z,13.99
2023-05-21T00:06:24.953Z,13.92
2023-05-21T00:08:53.028Z,13.96
2023-05-21T00:11:21.043Z,13.89
2023-05-21T00:13:49.070Z,14.03
2023-05-21T00:16:17.139Z,13.99
2023-05-21T00:18:45.468Z,13.78
2023-05-21T00:21:17.334Z,13.69
2023-05-21T00:23:45.591Z,13.75
2023-05-21T00:26:13.625Z,13.65
2023-05-21T00:28:41.609Z,13.47
2023-05-21T00:31:10.389Z,13.40
2023-05-21T00:33:38.406Z,13.44
2023-05-21T00:36:07.330Z,13.15
2023-05-21T00:38:38.198Z,13.41
2023-05-21T00:41:06.345Z,13.51
2023-05-21T00:43:34.356Z,13.42
2023-05-21T00:46:02.976Z,13.65
2023-05-21T00:48:32.360Z,13.49
2023-05-21T00:51:00.895Z,13.60
2023-05-21T00:53:30.300Z,13.49
2023-05-21T00:55:59.849Z,13.54
2023-05-21T00:58:28.211Z,13.30
2023-05-21T01:00:56.959Z,13.03
2023-05-21T01:03:26.432Z,13.08
2023-05-21T01:06:00.002Z,13.40
2023-05-21T01:08:29.211Z,13.45
2023-05-21T01:11:00.296Z,13.41
2023-05-21T01:13:29.045Z,13.33
2023-05-21T01:15:58.165Z,13.36
2023-05-21T01:18:26.447Z,13.25
2023-05-21T01:20:55.291Z,13.15
2023-05-21T01:23:24.879Z,13.25
2023-05-21T01:25:52.916Z,13.22
2023-05-21T01:28:21.038Z,13.18
2023-05-21T01:30:49.537Z,13.21
2023-05-21T01:33:21.438Z,13.32
2023-05-21T01:35:55.318Z,13.25
2023-05-21T01:38:27.477Z,13.26
2023-05-21T01:40:59.166Z,13.22
2023-05-21T01:43:30.644Z,13.30
2023-05-21T01:46:00.157Z,13.37
2023-05-21T01:48:30.042Z,13.31
2023-05-21T01:51:01.601Z,13.50
2023-05-21T01:53:31.027Z,13.35
2023-05-21T01:55:59.439Z,13.42
2023-05-21T01:58:27.552Z,13.06
2023-05-21T02:00:55.657Z,13.32
2023-05-21T02:03:26.927Z,12.98
2023-05-21T02:05:55.857Z,13.21
2023-05-21T02:08:23.966Z,13.20
2023-05-21T02:10:53.327Z,13.07
2023-05-21T02:13:25.822Z,13.08
2023-05-21T02:15:55.397Z,13.04
2023-05-21T02:18:23.579Z,12.91
2023-05-21T02:20:51.598Z,12.69
2023-05-21T02:23:19.551Z,12.77
2023-05-21T02:25:47.533Z,12.69
2023-05-21T02:28:17.109Z,12.56
2023-05-21T02:30:45.121Z,12.58
2023-05-21T02:33:14.483Z,12.70
2023-05-21T02:35:44.031Z,12.71
2023-05-21T02:38:13.759Z,12.78
2023-05-21T02:40:41.985Z,12.68
2023-05-21T02:43:09.954Z,12.50
2023-05-21T02:45:39.671Z,12.64
2023-05-21T02:48:07.849Z,12.42
2023-05-21T02:50:36.010Z,12.55
2023-05-21T02:53:04.405Z,12.44
2023-05-21T02:55:32.467Z,12.43
2023-05-21T02:58:00.564Z,12.51
2023-05-21T03:00:28.582Z,12.53
2023-05-21T03:02:58.187Z,12.53
2023-05-21T03:05:26.256Z,12.53
2023-05-21T03:07:54.474Z,12.36
2023-05-21T03:10:22.521Z,12.39
2023-05-21T03:12:50.991Z,12.34
2023-05-21T03:15:24.085Z,12.39
2023-05-21T03:17:54.412Z,12.32
2023-05-21T03:20:23.945Z,12.41
2023-05-21T03:22:53.047Z,12.22
2023-05-21T03:25:21.662Z,12.35
2023-05-21T03:27:49.803Z,12.32
2023-05-21T03:30:17.898Z,12.41
2023-05-21T03:32:46.254Z,12.35
2023-05-21T03:35:14.296Z,12.23
2023-05-21T03:37:43.667Z,12.21
2023-05-21T03:40:12.847Z,12.25
2023-05-21T03:42:40.927Z,12.21
2023-05-21T03:45:09.885Z,12.20
2023-05-21T03:47:37.915Z,12.10
2023-05-21T03:50:06.862Z,11.79
2023-05-21T03:52:34.816Z,12.11
2023-05-21T03:55:04.247Z,12.01
2023-05-21T03:57:32.340Z,12.05
2023-05-21T04:00:00.379Z,12.01
2023-05-21T04:02:28.506Z,11.89
2023-05-21T04:04:56.865Z,11.82
2023-05-21T04:07:24.852Z,11.67
2023-05-21T04:09:52.886Z,11.66
2023-05-21T04:12:22.536Z,11.74
2023-05-21T04:14:50.579Z,11.81
2023-05-21T04:17:19.334Z,11.74
2023-05-21T04:19:47.460Z,11.68
2023-05-21T04:22:15.661Z,11.71
2023-05-21T04:24:43.808Z,11.58
2023-05-21T04:27:11.962Z,11.76
2023-05-21T04:29:42.906Z,11.88
2023-05-21T04:32:11.817Z,11.86
2023-05-21T04:34:39.905Z,11.85
2023-05-21T04:37:09.596Z,11.95
2023-05-21T04:39:37.821Z,11.84
2023-05-21T04:42:06.258Z,11.92
2023-05-21T04:44:34.311Z,11.89
2023-05-21T04:47:04.132Z,11.89
2023-05-21T04:49:35.076Z,11.71
2023-05-21T04:52:03.237Z,11.96
2023-05-21T04:54:32.466Z,11.91
2023-05-21T04:57:00.653Z,11.86
2023-05-21T04:59:28.922Z,12.03
2023-05-21T05:01:56.949Z,12.12
2023-05-21T05:04:26.360Z,12.12
2023-05-21T05:06:54.374Z,12.20
2023-05-21T05:09:25.186Z,12.25
2023-05-21T05:11:53.144Z,12.24
2023-05-21T05:14:23.959Z,12.28
2023-05-21T05:16:51.941Z,12.42
2023-05-21T05:19:19.993Z,12.41
2023-05-21T05:21:49.450Z,12.55
2023-05-21T05:24:17.533Z,12.69
2023-05-21T05:26:45.595Z,12.85
2023-05-21T05:29:13.613Z,12.82
2023-05-21T05:31:41.850Z,13.05
2023-05-21T05:34:09.921Z,13.10
2023-05-21T05:36:37.988Z,13.14
2023-05-21T05:39:07.849Z,13.22
2023-05-21T05:41:36.000Z,13.26
2023-05-21T05:44:04.001Z,13.34
2023-05-21T05:46:32.114Z,13.48
2023-05-21T05:49:00.141Z,13.69
2023-05-21T05:51:28.140Z,13.71
2023-05-21T05:53:56.092Z,13.82
2023-05-21T05:56:27.046Z,13.93
2023-05-21T05:58:55.024Z,14.12
2023-05-21T06:01:24.961Z,14.21
2023-05-21T06:03:53.080Z,14.38
2023-05-21T06:06:21.335Z,14.31
2023-05-21T06:08:49.459Z,14.50
2023-05-21T06:11:19.299Z,14.59
2023-05-21T06:13:48.874Z,14.61
2023-05-21T06:16:16.962Z,14.67
2023-05-21T06:18:45.782Z,14.67
2023-05-21T06:21:13.843Z,14.79
2023-05-21T06:23:41.927Z,14.62
2023-05-21T06:26:10.340Z,14.52
2023-05-21T06:28:38.431Z,14.57
2023-05-21T06:31:07.800Z,14.53
2023-05-21T06:33:35.946Z,14.71
2023-05-21T06:36:04.101Z,14.99
2023-05-21T06:38:32.235Z,15.07
2023-05-21T06:41:00.319Z,15.01
2023-05-21T06:43:29.007Z,15.07
2023-05-21T06:45:58.146Z,15.21
2023-05-21T06:48:28.651Z,15.24
2023-05-21T06:50:57.291Z,15.43
2023-05-21T06:53:26.224Z,15.36
2023-05-21T06:55:55.433Z,15.52
2023-05-21T06:58:24.441Z,15.37
2023-05-21T07:00:53.313Z,15.54
2023-05-21T07:03:25.444Z,15.51
2023-05-21T07:05:55.806Z,15.83
2023-05-21T07:08:24.577Z,15.93
2023-05-21T07:10:53.280Z,15.79
2023-05-21T07:13:21.328Z,15.88
2023-05-21T07:15:49.517Z,16.03
2023-05-21T07:18:17.916Z,16.01
2023-05-21T07:20:46.044Z,16.45
2023-05-21T07:23:15.564Z,16.37
2023-05-21T07:25:43.533Z,16.19
2023-05-21T07:28:11.600Z,16.17
2023-05-21T07:30:39.661Z,16.44
2023-05-21T07:33:08.116Z,16.74
2023-05-21T07:35:36.483Z,17.04
2023-05-21T07:38:04.920Z,16.91
2023-05-21T07:40:34.333Z,17.24
2023-05-21T07:43:02.354Z,17.11
2023-05-21T07:45:30.303Z,17.07
2023-05-21T07:47:58.462Z,16.73
2023-05-21T07:50:26.917Z,16.65
2023-05-21T07:52:54.985Z,16.82
2023-05-21T07:55:23.038Z,17.10
2023-05-21T07:57:52.508Z,16.78
2023-05-21T08:00:20.856Z,16.90
2023-05-21T08:02:48.867Z,17.07
2023-05-21T08:05:17.519Z,17.63
2023-05-21T08:07:46.386Z,17.19
2023-05-21T08:10:14.740Z,17.72
2023-05-21T08:12:44.130Z,18.26
2023-05-21T08:15:13.787Z,18.08
2023-05-21T08:17:41.869Z,17.95
2023-05-21T08:20:11.094Z,17.84
2023-05-21T08:22:39.048Z,17.48
2023-05-21T08:25:07.910Z,17.88
2023-05-21T08:27:37.188Z,17.56
2023-05-21T08:30:06.150Z,17.61
2023-05-21T08:32:35.652Z,18.39
2023-05-21T08:35:03.725Z,18.71
2023-05-21T08:37:33.811Z,18.19
2023-05-21T08:40:01.866Z,18.78
2023-05-21T08:42:37.855Z,18.70
2023-05-21T08:45:07.846Z,18.90
2023-05-21T08:47:37.809Z,18.63
2023-05-21T08:50:06.804Z,18.68
2023-05-21T08:52:34.844Z,18.30
2023-05-21T08:55:04.835Z,18.40
2023-05-21T08:57:33.313Z,19.18
2023-05-21T09:00:02.003Z,19.49
2023-05-21T09:02:34.380Z,19.20
2023-05-21T09:05:05.748Z,19.16
2023-05-21T09:07:40.876Z,19.32
2023-05-21T09:10:13.347Z,19.88
2023-05-21T09:12:41.609Z,19.40
2023-05-21T09:15:10.485Z,19.49
2023-05-21T09:17:38.479Z,19.83
2023-05-21T09:20:14.707Z,20.09
2023-05-21T09:22:44.498Z,19.40
2023-05-21T09:25:13.554Z,20.00
2023-05-21T09:27:45.597Z,20.22
2023-05-21T09:30:15.840Z,19.99
2023-05-21T09:32:45.047Z,19.83
2023-05-21T09:35:16.095Z,20.48
2023-05-21T09:37:45.210Z,20.85
2023-05-21T09:40:15.353Z,20.79
2023-05-21T09:42:46.572Z,21.14
2023-05-21T09:45:18.652Z,20.92
2023-05-21T09:47:47.719Z,20.53
2023-05-21T09:50:20.188Z,20.77
2023-05-21T09:52:48.562Z,21.21
2023-05-21T09:55:17.625Z,21.32
2023-05-21T09:57:49.108Z,21.28
2023-05-21T10:00:20.272Z,21.31
2023-05-21T10:02:49.644Z,21.43
2023-05-21T10:05:19.131Z,21.98
2023-05-21T10:07:51.454Z,21.77
2023-05-21T10:10:21.705Z,22.32
2023-05-21T10:12:57.095Z,21.93
2023-05-21T10:15:39.303Z,21.77
2023-05-21T10:18:12.572Z,21.60
2023-05-21T10:20:44.913Z,22.11
2023-05-21T10:23:18.603Z,21.47
2023-05-21T10:25:48.248Z,21.85
2023-05-21T10:28:18.427Z,22.06
2023-05-21T10:30:48.022Z,21.82
2023-05-21T10:33:19.234Z,22.35
2023-05-21T10:35:53.135Z,22.92
2023-05-21T10:38:21.750Z,22.50
2023-05-21T10:40:50.808Z,22.59
2023-05-21T10:43:53.237Z,23.13
2023-05-21T10:46:49.076Z,23.05
2023-05-21T10:49:31.783Z,22.83
2023-05-21T10:52:12.279Z,23.29
2023-05-21T10:54:58.888Z,23.13
2023-05-21T10:57:47.695Z,23.01
2023-05-21T11:00:24.158Z,22.97
2023-05-21T11:02:54.859Z,22.85
2023-05-21T11:05:45.427Z,22.75
2023-05-21T11:08:32.372Z,22.25
2023-05-21T11:11:01.645Z,22.79
2023-05-21T11:13:49.429Z,22.98
2023-05-21T11:16:22.110Z,23.21
2023-05-21T11:19:04.534Z,23.81
2023-05-21T11:21:37.116Z,24.11
2023-05-21T11:24:11.359Z,23.64
2023-05-21T11:27:05.218Z,23.70
2023-05-21T11:29:41.257Z,24.26
2023-05-21T11:32:11.088Z,24.32
2023-05-21T11:34:42.155Z,24.55
2023-05-21T11:37:29.577Z,23.42
2023-05-21T11:40:18.019Z,23.74
2023-05-21T11:42:51.226Z,24.77
2023-05-21T11:45:21.243Z,24.74
2023-05-21T11:47:49.825Z,25.04
2023-05-21T11:50:18.725Z,24.63
2023-05-21T11:52:47.028Z,24.16
2023-05-21T11:55:17.492Z,25.05
2023-05-21T11:57:48.151Z,25.07
2023-05-21T12:00:17.391Z,24.67
2023-05-21T12:02:47.616Z,25.53
2023-05-21T12:05:15.890Z,25.19
2023-05-21T12:07:44.216Z,25.28
2023-05-21T12:10:14.415Z,25.88
2023-05-21T12:12:54.689Z,25.42
2023-05-21T12:15:26.335Z,25.81
2023-05-21T12:17:56.255Z,25.35
2023-05-21T12:20:27.424Z,25.05
2023-05-21T12:22:55.584Z,25.24
2023-05-21T12:25:23.887Z,25.43
2023-05-21T12:27:58.022Z,25.79
2023-05-21T12:30:26.739Z,24.81
2023-05-21T12:32:57.273Z,24.75
2023-05-21T12:35:27.544Z,24.82
2023-05-21T12:38:10.732Z,24.29
2023-05-21T12:40:40.230Z,24.71
2023-05-21T12:43:10.062Z,24.56
2023-05-21T12:45:40.740Z,24.76
2023-05-21T12:48:09.288Z,25.08
2023-05-21T12:50:40.718Z,25.69
2023-05-21T12:53:11.076Z,25.65
2023-05-21T12:55:39.114Z,25.38
2023-05-21T12:58:09.183Z,25.46
2023-05-21T13:00:39.006Z,25.03
2023-05-21T13:03:07.508Z,24.48
2023-05-21T13:05:36.022Z,24.08
2023-05-21T13:08:04.052Z,24.28
2023-05-21T13:10:32.067Z,24.25
2023-05-21T13:13:00.406Z,24.22
2023-05-21T13:15:28.400Z,23.99
2023-05-21T13:17:58.937Z,23.77
2023-05-21T13:20:28.045Z,23.94
2023-05-21T13:22:56.276Z,24.04
2023-05-21T13:25:28.974Z,24.10
2023-05-21T13:27:57.464Z,24.03
2023-05-21T13:30:25.461Z,23.68
2023-05-21T13:32:53.723Z,23.61
2023-05-21T13:35:23.402Z,23.24
2023-05-21T13:37:51.371Z,23.03
2023-05-21T13:40:20.679Z,22.49
2023-05-21T13:42:50.071Z,22.16
2023-05-21T13:45:19.797Z,21.71
2023-05-21T13:47:48.836Z,21.10
2023-05-21T13:50:17.241Z,20.52
2023-05-21T13:52:47.170Z,20.07
2023-05-21T13:55:16.585Z,19.93
2023-05-21T13:57:46.114Z,19.74
2023-05-21T14:00:16.224Z,19.84
2023-05-21T14:02:45.499Z,19.90
2023-05-21T14:05:13.842Z,19.90
2023-05-21T14:07:42.239Z,20.05
2023-05-21T14:10:12.406Z,19.98
2023-05-21T14:12:41.036Z,19.52
2023-05-21T14:15:09.956Z,19.62
2023-05-21T14:17:40.318Z,19.48
2023-05-21T14:20:10.115Z,19.38
2023-05-21T14:22:39.060Z,19.37
2023-05-21T14:25:07.936Z,19.20
2023-05-21T14:27:38.978Z,19.35
2023-05-21T14:30:08.095Z,19.20
2023-05-21T14:32:36.202Z,19.46
2023-05-21T14:35:05.188Z,19.55
2023-05-21T14:37:33.264Z,19.57
2023-05-21T14:40:01.352Z,19.69
2023-05-21T14:42:29.337Z,19.77
2023-05-21T14:44:58.924Z,19.83
2023-05-21T14:47:27.123Z,20.04
2023-05-21T14:49:55.231Z,20.17
2023-05-21T14:52:23.278Z,20.31
2023-05-21T14:54:51.364Z,20.63
2023-05-21T14:57:19.424Z,20.75
2023-05-21T14:59:47.467Z,20.73
2023-05-21T15:02:17.035Z,20.45
2023-05-21T15:04:45.160Z,20.67
2023-05-21T15:07:13.150Z,20.80
2023-05-21T15:09:41.252Z,20.83
2023-05-21T15:12:09.335Z,20.92
2023-05-21T15:14:37.403Z,20.99
2023-05-21T15:17:05.983Z,21.11
2023-05-21T15:19:35.495Z,21.06
2023-05-21T15:22:03.687Z,20.99
2023-05-21T15:24:31.666Z,21.31
2023-05-21T15:26:59.704Z,21.65
2023-05-21T15:29:27.998Z,21.76
2023-05-21T15:31:56.184Z,21.88
2023-05-21T15:34:24.248Z,21.98
2023-05-21T15:36:53.701Z,22.09
2023-05-21T15:39:21.687Z,22.00
2023-05-21T15:41:49.829Z,22.70
2023-05-21T15:44:17.797Z,22.51
2023-05-21T15:46:45.873Z,22.35
2023-05-21T15:49:13.858Z,22.56
2023-05-21T15:51:42.776Z,22.60
2023-05-21T15:54:12.953Z,22.70
2023-05-21T15:56:41.212Z,22.82
2023-05-21T15:59:09.342Z,22.57
2023-05-21T16:01:37.410Z,22.69
2023-05-21T16:04:05.613Z,22.41
2023-05-21T16:06:33.723Z,22.68
2023-05-21T16:09:01.900Z,22.47
2023-05-21T16:11:31.294Z,22.63
2023-05-21T16:13:59.317Z,22.56
2023-05-21T16:16:27.442Z,22.48
2023-05-21T16:18:56.348Z,22.42
2023-05-21T16:21:33.300Z,22.13
2023-05-21T16:24:05.332Z,21.96
2023-05-21T16:26:34.884Z,21.81
2023-05-21T16:29:02.905Z,21.72
2023-05-21T16:31:31.285Z,21.73
2023-05-21T16:34:00.096Z,21.19
2023-05-21T16:36:28.332Z,21.37
2023-05-21T16:38:56.432Z,21.36
2023-05-21T16:41:24.872Z,21.57
2023-05-21T16:43:54.569Z,21.11
2023-05-21T16:46:23.149Z,21.14
2023-05-21T16:48:51.653Z,20.80
2023-05-21T16:51:20.121Z,20.36
2023-05-21T16:53:51.437Z,20.33
2023-05-21T16:56:25.558Z,20.02
2023-05-21T16:58:55.153Z,19.76
2023-05-21T17:01:23.440Z,19.59
2023-05-21T17:03:51.887Z,19.53
2023-05-21T17:06:20.205Z,19.55
2023-05-21T17:08:48.418Z,19.49
2023-05-21T17:11:21.628Z,19.36
2023-05-21T17:13:54.035Z,19.26
2023-05-21T17:16:25.193Z,18.98
2023-05-21T17:18:53.430Z,19.05
2023-05-21T17:21:22.897Z,18.96
2023-05-21T17:23:51.397Z,18.94
2023-05-21T17:26:19.501Z,18.99
2023-05-21T17:28:48.115Z,18.94
2023-05-21T17:31:18.272Z,19.04
2023-05-21T17:33:48.243Z,18.87
2023-05-21T17:36:16.641Z,18.80
2023-05-21T17:38:45.585Z,18.76
2023-05-21T17:41:15.068Z,18.43
2023-05-21T17:43:43.802Z,18.50
2023-05-21T17:46:17.051Z,18.68
2023-05-21T17:48:45.197Z,18.51
2023-05-21T17:51:14.633Z,18.40
2023-05-21T17:53:42.783Z,18.21
2023-05-21T17:56:11.438Z,18.09
2023-05-21T17:58:39.438Z,18.09
2023-05-21T18:01:07.533Z,18.21
2023-05-21T18:03:35.576Z,18.36
2023-05-21T18:06:04.996Z,18.24
2023-05-21T18:08:36.285Z,18.18
2023-05-21T18:11:04.452Z,18.10
2023-05-21T18:13:32.711Z,18.26
2023-05-21T18:16:00.740Z,17.98
2023-05-21T18:18:28.757Z,18.11
2023-05-21T18:20:56.759Z,18.08
2023-05-21T18:23:24.972Z,18.06
2023-05-21T18:25:54.367Z,18.02
2023-05-21T18:28:22.560Z,17.91
2023-05-21T18:30:50.740Z,17.90
2023-05-21T18:33:19.329Z,17.78
2023-05-21T18:35:47.319Z,17.70
2023-05-21T18:38:16.325Z,17.50
2023-05-21T18:40:44.353Z,17.61
2023-05-21T18:43:15.215Z,17.69
2023-05-21T18:45:47.440Z,17.83
2023-05-21T18:48:18.765Z,17.73
2023-05-21T18:50:47.951Z,17.47
2023-05-21T18:53:16.041Z,17.51
2023-05-21T18:55:51.744Z,17.57
2023-05-21T18:58:21.697Z,17.45
2023-05-21T19:00:50.178Z,17.47
2023-05-21T19:03:19.046Z,17.24
2023-05-21T19:05:47.598Z,17.29
2023-05-21T19:08:22.563Z,17.13
2023-05-21T19:10:53.033Z,16.95
2023-05-21T19:13:32.683Z,16.87
2023-05-21T19:16:04.388Z,16.97
2023-05-21T19:18:33.243Z,16.63
2023-05-21T19:21:08.678Z,16.69
2023-05-21T19:23:52.516Z,16.83
2023-05-21T19:26:25.960Z,16.79
2023-05-21T19:28:56.347Z,16.72
2023-05-21T19:31:26.705Z,16.53
2023-05-21T19:34:00.990Z,16.50
2023-05-21T19:36:35.064Z,16.44
2023-05-21T19:39:13.549Z,16.22
2023-05-21T19:41:42.868Z,16.47
2023-05-21T19:44:14.226Z,16.64
2023-05-21T19:46:42.872Z,16.56
2023-05-21T19:49:16.139Z,16.51
2023-05-21T19:51:46.804Z,16.33
2023-05-21T19:54:16.656Z,16.24
2023-05-21T19:56:45.172Z,16.31
2023-05-21T19:59:25.066Z,16.37
2023-05-21T20:01:58.154Z,16.49
2023-05-21T20:04:28.914Z,16.60
2023-05-21T20:06:57.164Z,16.49
2023-05-21T20:09:25.216Z,16.34
2023-05-21T20:11:55.661Z,16.12
2023-05-21T20:14:25.146Z,16.06
2023-05-21T20:16:53.912Z,15.94
2023-05-21T20:19:22.536Z,15.77
2023-05-21T20:21:51.210Z,16.10
2023-05-21T20:24:20.104Z,15.65
2023-05-21T20:26:48.156Z,15.70
2023-05-21T20:29:18.584Z,15.60
2023-05-21T20:31:48.698Z,15.53
2023-05-21T20:34:17.956Z,15.48
2023-05-21T20:36:47.115Z,15.23
2023-05-21T20:39:15.995Z,15.36
2023-05-21T20:41:44.942Z,14.95
2023-05-21T20:44:14.252Z,15.23
2023-05-21T20:46:42.390Z,15.17
2023-05-21T20:49:16.110Z,15.20
2023-05-21T20:51:47.425Z,15.27
2023-05-21T20:54:15.647Z,15.16
2023-05-21T20:57:25.941Z,15.15
2023-05-21T20:59:53.980Z,15.16
2023-05-21T21:02:23.086Z,15.19
2023-05-21T21:04:53.932Z,15.18
2023-05-21T21:07:22.387Z,15.17
2023-05-21T21:09:50.752Z,15.03
2023-05-21T21:12:25.314Z,15.10
2023-05-21T21:14:55.993Z,15.06
2023-05-21T21:17:25.245Z,15.10
2023-05-21T21:19:54.704Z,15.10
2023-05-21T21:22:22.697Z,15.06
2023-05-21T21:24:51.112Z,14.99
2023-05-21T21:27:19.613Z,15.12
2023-05-21T21:29:47.658Z,15.01
2023-05-21T21:32:15.777Z,15.08
2023-05-21T21:34:45.021Z,15.15
2023-05-21T21:37:14.492Z,15.18
2023-05-21T21:39:43.240Z,15.24
2023-05-21T21:42:12.428Z,15.19
2023-05-21T21:44:40.891Z,15.07
2023-05-21T21:47:08.927Z,15.18
2023-05-21T21:49:36.963Z,15.34
2023-05-21T21:52:07.455Z,15.22
2023-05-21T21:54:37.206Z,15.24
2023-05-21T21:57:09.234Z,15.08
2023-05-21T21:59:40.464Z,14.89
2023-05-21T22:02:09.769Z,14.78
2023-05-21T22:04:39.409Z,15.09
2023-05-21T22:07:11.140Z,15.18
2023-05-21T22:09:45.129Z,15.18
2023-05-21T22:12:14.361Z,15.14
2023-05-21T22:14:44.377Z,15.12
2023-05-21T22:17:12.546Z,14.99
2023-05-21T22:19:40.932Z,15.10
2023-05-21T22:22:10.486Z,15.12
2023-05-21T22:24:39.229Z,15.08
2023-05-21T22:27:08.694Z,15.06
2023-05-21T22:29:37.776Z,15.01
2023-05-21T22:32:06.805Z,14.85
2023-05-21T22:34:34.889Z,15.00
2023-05-21T22:37:04.891Z,15.06
2023-05-21T22:39:36.286Z,15.09
2023-05-21T22:42:10.412Z,15.08
2023-05-21T22:44:40.980Z,15.19
2023-05-21T22:47:10.977Z,14.87
2023-05-21T22:49:40.777Z,14.79
2023-05-21T22:52:09.561Z,14.96
2023-05-21T22:54:37.989Z,15.03
2023-05-21T22:57:06.816Z,14.91
2023-05-21T22:59:34.795Z,14.72
2023-05-21T23:02:07.541Z,14.95
2023-05-21T23:04:43.774Z,15.01
2023-05-21T23:07:17.284Z,14.92
2023-05-21T23:09:45.440Z,14.82
2023-05-21T23:12:16.728Z,14.88
2023-05-21T23:14:47.701Z,14.85
2023-05-21T23:17:17.990Z,14.84
2023-05-21T23:19:45.960Z,14.81
2023-05-21T23:22:13.930Z,14.76
2023-05-21T23:24:41.910Z,14.63
2023-05-21T23:27:09.856Z,14.54
2023-05-21T23:29:37.872Z,14.55
2023-05-21T23:32:06.545Z,14.51
2023-05-21T23:34:36.082Z,14.47
2023-05-21T23:37:04.163Z,14.20
2023-05-21T23:39:32.184Z,14.22
2023-05-21T23:42:00.623Z,14.33
2023-05-21T23:44:28.599Z,14.36
2023-05-21T23:46:56.519Z,14.35
2023-05-21T23:49:24.531Z,14.35
2023-05-21T23:51:53.910Z,14.21
2023-05-21T23:54:21.958Z,14.30
2023-05-21T23:56:49.957Z,14.22
2023-05-21T23:59:18.597Z,14.18
